Time;durP1;ratioP1;P1;durP2;ratioP2;P2;SDS_P1;SDS_P2;PMS_P1;PMS_P2;Temp;Humidity;BMP_temperature;BMP_pressure;BME280_temperature;BME280_humidity;BME280_pressure;Samples;Min_cycle;Max_cycle;Signal;HPM_P1;HPM_P2
2023/10/12 00:02:00;;;;;;;22.73;16.20;;;;;;;;;;4936393;29;20188;-85
2023/10/12 00:05:03;;;;;;;22.57;16.10;;;;;;;;;;4947994;29;20202;-90
2023/10/12 00:07:38;;;;;;;22.47;16.30;;;;;;;;;;4936129;29;20345;-85
2023/10/12 00:12:44;;;;;;;25.37;16.77;;;;;;;;;;4941720;29;20223;-85
2023/10/12 00:15:38;;;;;;;20.87;17.60;;;;;;;;;;4935868;29;20187;-85
2023/10/12 00:18:08;;;;;;;23.40;16.87;;;;;;;;;;4936474;29;20224;-84
2023/10/12 00:20:38;;;;;;;20.83;18.03;;;;;;;;;;4941129;29;20222;-84
2023/10/12 00:23:10;;;;;;;27.17;17.80;;;;;;;;;;4944737;29;20191;-84
2023/10/12 00:25:45;;;;;;;22.83;17.67;;;;;;;;;;4945242;29;20250;-85
2023/10/12 00:28:13;;;;;;;26.10;17.67;;;;;;;;;;4936344;29;20218;-84
2023/10/12 00:30:42;;;;;;;22.07;17.43;;;;;;;;;;4939947;29;20184;-84
2023/10/12 00:33:08;;;;;;;23.87;17.70;;;;;;;;;;4946176;29;20227;-84
2023/10/12 00:35:37;;;;;;;26.67;18.03;;;;;;;;;;4936612;29;20212;-84
2023/10/12 00:38:17;;;;;;;24.60;18.03;;;;;;;;;;4942240;29;20200;-84
2023/10/12 00:41:07;;;;;;;25.37;19.20;;;;;;;;;;4947304;29;20190;-84
2023/10/12 00:43:39;;;;;;;25.13;18.30;;;;;;;;;;4946421;29;20191;-84
2023/10/12 00:49:40;;;;;;;25.20;19.67;;;;;;;;;;4951855;28;20198;-85
2023/10/12 00:51:37;;;;;;;28.33;20.03;;;;;;;;;;4932810;29;20194;-85
2023/10/12 00:54:04;;;;;;;30.93;20.47;;;;;;;;;;4948345;28;20184;-84
2023/10/12 00:56:36;;;;;;;29.33;20.73;;;;;;;;;;4942547;28;20190;-84
2023/10/12 00:59:04;;;;;;;30.03;20.37;;;;;;;;;;4937722;29;20187;-84
2023/10/12 01:01:35;;;;;;;32.43;21.77;;;;;;;;;;4943705;29;20183;-85
2023/10/12 01:04:01;;;;;;;29.00;20.97;;;;;;;;;;4933499;29;20264;-85
2023/10/12 01:06:32;;;;;;;30.10;22.30;;;;;;;;;;4940839;29;20322;-84
2023/10/12 01:09:18;;;;;;;33.10;23.27;;;;;;;;;;4947965;29;20179;-85
2023/10/12 01:11:49;;;;;;;32.77;22.50;;;;;;;;;;4950853;29;20272;-85
2023/10/12 01:14:18;;;;;;;33.57;23.77;;;;;;;;;;4954163;29;20205;-86
2023/10/12 01:16:54;;;;;;;32.60;24.40;;;;;;;;;;4935637;29;20211;-85
2023/10/12 01:19:20;;;;;;;32.77;24.43;;;;;;;;;;4946221;29;20195;-85
2023/10/12 01:21:49;;;;;;;35.83;25.07;;;;;;;;;;4939109;29;20180;-85
2023/10/12 01:24:16;;;;;;;37.50;24.63;;;;;;;;;;4935189;29;20247;-84
2023/10/12 01:26:48;;;;;;;38.70;26.07;;;;;;;;;;4940662;29;20227;-85
2023/10/12 01:29:25;;;;;;;33.40;25.57;;;;;;;;;;4946125;29;20191;-84
2023/10/12 01:32:21;;;;;;;40.20;26.37;;;;;;;;;;4944329;29;20243;-84
2023/10/12 01:34:53;;;;;;;37.50;27.23;;;;;;;;;;4952872;28;20199;-84
2023/10/12 01:37:24;;;;;;;41.23;28.13;;;;;;;;;;4945698;29;20274;-84
2023/10/12 01:39:57;;;;;;;39.30;28.03;;;;;;;;;;4946012;29;20302;-84
2023/10/12 01:45:40;;;;;;;39.73;27.93;;;;;;;;;;4940078;29;20278;-84
2023/10/12 01:48:08;;;;;;;41.20;28.63;;;;;;;;;;4944613;29;20219;-85
2023/10/12 01:50:37;;;;;;;39.97;28.50;;;;;;;;;;4951669;29;20250;-84
2023/10/12 01:53:08;;;;;;;42.97;28.17;;;;;;;;;;4940224;29;20212;-84
2023/10/12 01:55:34;;;;;;;38.53;27.90;;;;;;;;;;4947735;29;20188;-84
2023/10/12 01:58:04;;;;;;;34.80;26.40;;;;;;;;;;4939251;29;20187;-84
2023/10/12 02:00:43;;;;;;;35.53;27.50;;;;;;;;;;4941256;29;20243;-84
2023/10/12 02:03:15;;;;;;;36.13;26.30;;;;;;;;;;4951279;29;20192;-84
2023/10/12 02:05:58;;;;;;;29.63;24.63;;;;;;;;;;4957178;29;20196;-84
2023/10/12 02:09:08;;;;;;;34.77;25.20;;;;;;;;;;4950576;29;20216;-85
2023/10/12 02:13:51;;;;;;;29.00;22.90;;;;;;;;;;4941958;29;20279;-85
2023/10/12 02:16:30;;;;;;;30.60;24.83;;;;;;;;;;4955405;29;20194;-84
2023/10/12 02:19:04;;;;;;;33.80;25.87;;;;;;;;;;4951994;29;20187;-84
2023/10/12 02:21:33;;;;;;;34.53;26.20;;;;;;;;;;4941680;29;20238;-84
2023/10/12 02:26:38;;;;;;;35.50;25.67;;;;;;;;;;4939572;29;20263;-85
2023/10/12 02:31:58;;;;;;;38.20;26.13;;;;;;;;;;4940403;29;20219;-91
2023/10/12 02:34:31;;;;;;;35.10;25.13;;;;;;;;;;4938325;29;20226;-90
2023/10/12 02:39:48;;;;;;;30.77;23.93;;;;;;;;;;4951321;29;20223;-92
2023/10/12 02:45:00;;;;;;;26.20;19.63;;;;;;;;;;4958202;29;20211;-90
2023/10/12 02:47:33;;;;;;;25.10;18.57;;;;;;;;;;4946040;28;20247;-91
2023/10/12 02:50:27;;;;;;;24.30;17.87;;;;;;;;;;4938325;29;20184;-91
2023/10/12 02:52:52;;;;;;;26.10;18.27;;;;;;;;;;4941426;29;20202;-91
2023/10/12 02:57:56;;;;;;;24.97;17.30;;;;;;;;;;4951794;29;20218;-91
2023/10/12 03:00:45;;;;;;;25.23;15.53;;;;;;;;;;4953730;29;20187;-91
2023/10/12 03:03:25;;;;;;;21.70;14.63;;;;;;;;;;4939470;29;20176;-90
2023/10/12 03:06:20;;;;;;;21.97;15.20;;;;;;;;;;4937776;29;20251;-92
2023/10/12 03:09:14;;;;;;;20.37;14.57;;;;;;;;;;4948861;29;20231;-91
2023/10/12 03:11:42;;;;;;;23.10;14.17;;;;;;;;;;4938878;29;20214;-90
2023/10/12 03:17:09;;;;;;;20.33;12.70;;;;;;;;;;4939473;29;20203;-91
2023/10/12 03:19:36;;;;;;;20.63;13.43;;;;;;;;;;4938058;29;20267;-90
2023/10/12 03:22:19;;;;;;;21.40;14.20;;;;;;;;;;4937069;29;20264;-92
2023/10/12 03:24:51;;;;;;;21.20;13.53;;;;;;;;;;4938088;29;20207;-91
2023/10/12 03:27:23;;;;;;;20.90;13.37;;;;;;;;;;4937245;29;20219;-91
2023/10/12 03:30:01;;;;;;;21.07;13.13;;;;;;;;;;4937532;29;20184;-92
2023/10/12 03:32:31;;;;;;;20.03;13.97;;;;;;;;;;4934885;29;20199;-91
2023/10/12 03:34:57;;;;;;;19.17;13.70;;;;;;;;;;4938765;29;20207;-91
2023/10/12 03:43:10;;;;;;;21.27;13.53;;;;;;;;;;4945328;29;20202;-91
2023/10/12 03:46:26;;;;;;;19.93;12.70;;;;;;;;;;4938125;29;20215;-90
2023/10/12 03:48:26;;;;;;;21.70;13.00;;;;;;;;;;4947328;29;20274;-90
2023/10/12 03:50:59;;;;;;;21.87;13.10;;;;;;;;;;4945793;29;20283;-91
2023/10/12 03:53:31;;;;;;;19.07;13.03;;;;;;;;;;4946581;29;20199;-91
2023/10/12 03:56:00;;;;;;;20.43;12.63;;;;;;;;;;4937128;29;20200;-90
2023/10/12 03:58:27;;;;;;;22.00;12.23;;;;;;;;;;4936586;29;20210;-91
2023/10/12 04:04:08;;;;;;;18.43;12.33;;;;;;;;;;4936581;29;20199;-91
2023/10/12 04:07:04;;;;;;;21.77;12.20;;;;;;;;;;4955943;29;20234;-92
2023/10/12 04:09:43;;;;;;;18.63;12.17;;;;;;;;;;4956345;29;20244;-92
2023/10/12 04:14:54;;;;;;;20.77;12.90;;;;;;;;;;4938884;29;20192;-92
2023/10/12 04:28:17;;;;;;;23.43;13.77;;;;;;;;;;4938296;29;20215;-92
2023/10/12 04:33:17;;;;;;;20.13;13.93;;;;;;;;;;4937832;29;20235;-91
2023/10/12 04:43:53;;;;;;;24.63;14.63;;;;;;;;;;4918921;29;20261;-92
2023/10/12 04:49:29;;;;;;;27.07;14.67;;;;;;;;;;4953931;29;20289;-91
2023/10/12 04:54:49;;;;;;;24.23;14.60;;;;;;;;;;4936604;29;20191;-86
2023/10/12 04:57:17;;;;;;;23.87;14.13;;;;;;;;;;4939899;29;20187;-85
2023/10/12 04:59:50;;;;;;;25.87;13.80;;;;;;;;;;4955320;29;20205;-85
2023/10/12 05:02:28;;;;;;;28.33;14.60;;;;;;;;;;4952481;29;20243;-85
2023/10/12 05:07:27;;;;;;;23.07;14.60;;;;;;;;;;4943125;29;20234;-85
2023/10/12 05:09:54;;;;;;;24.43;14.47;;;;;;;;;;4952753;28;20184;-85
2023/10/12 05:12:20;;;;;;;27.63;14.53;;;;;;;;;;4933668;29;20180;-92
2023/10/12 05:14:55;;;;;;;28.57;14.47;;;;;;;;;;4948566;29;20180;-91
2023/10/12 05:17:24;;;;;;;8.27;4.83;;;;;;;;;;4934352;29;20222;-91
2023/10/12 05:19:52;;;;;;;4.63;3.67;;;;;;;;;;4942749;29;20188;-90
2023/10/12 05:22:21;;;;;;;4.93;3.60;;;;;;;;;;4939578;29;20192;-90
2023/10/12 05:24:48;;;;;;;3.70;3.30;;;;;;;;;;4939693;29;20314;-90
2023/10/12 05:27:24;;;;;;;5.50;3.07;;;;;;;;;;4941871;29;20208;-90
2023/10/12 05:29:59;;;;;;;3.50;2.97;;;;;;;;;;4939769;29;20198;-90
2023/10/12 05:32:55;;;;;;;4.03;3.20;;;;;;;;;;4957737;29;20187;-89
2023/10/12 05:35:15;;;;;;;4.50;3.10;;;;;;;;;;4956617;29;20083;-90
2023/10/12 05:37:48;;;;;;;3.53;2.90;;;;;;;;;;4939998;29;20227;-91
2023/10/12 05:40:17;;;;;;;4.00;3.23;;;;;;;;;;4956662;29;20175;-92
2023/10/12 05:42:46;;;;;;;4.33;3.07;;;;;;;;;;4950413;29;20188;-90
2023/10/12 05:45:22;;;;;;;3.40;3.10;;;;;;;;;;4958565;29;20203;-91
2023/10/12 05:47:54;;;;;;;2.60;2.40;;;;;;;;;;4958518;29;20213;-91
2023/10/12 05:50:23;;;;;;;2.40;2.20;;;;;;;;;;4944234;29;20179;-91
2023/10/12 05:52:59;;;;;;;2.80;2.00;;;;;;;;;;4943086;29;20179;-91
2023/10/12 05:55:25;;;;;;;2.40;2.20;;;;;;;;;;4957871;29;20175;-92
2023/10/12 05:57:51;;;;;;;2.57;2.10;;;;;;;;;;4948802;29;20194;-91
2023/10/12 06:00:36;;;;;;;3.53;2.27;;;;;;;;;;4954166;29;20191;-92
2023/10/12 06:03:06;;;;;;;2.23;1.80;;;;;;;;;;4938820;29;20184;-91
2023/10/12 06:05:35;;;;;;;3.07;2.07;;;;;;;;;;4938421;29;20184;-91
2023/10/12 06:08:02;;;;;;;3.17;2.20;;;;;;;;;;4933032;29;20267;-92
2023/10/12 06:10:28;;;;;;;4.13;1.90;;;;;;;;;;4932944;29;20183;-91
2023/10/12 06:12:57;;;;;;;2.40;1.40;;;;;;;;;;4957528;29;20266;-91
2023/10/12 06:15:25;;;;;;;2.60;1.43;;;;;;;;;;4957695;29;20187;-91
2023/10/12 06:17:57;;;;;;;3.13;1.40;;;;;;;;;;4957688;29;20187;-90
2023/10/12 06:20:36;;;;;;;3.13;1.70;;;;;;;;;;4955711;28;20187;-92
2023/10/12 06:23:08;;;;;;;3.33;1.87;;;;;;;;;;4938274;29;20234;-90
2023/10/12 06:25:43;;;;;;;3.87;2.10;;;;;;;;;;4941750;29;20190;-90
2023/10/12 06:28:17;;;;;;;5.17;2.23;;;;;;;;;;4945302;29;20215;-90
2023/10/12 06:30:44;;;;;;;4.43;2.23;;;;;;;;;;4938210;29;20184;-91
2023/10/12 06:33:14;;;;;;;7.47;2.60;;;;;;;;;;4967326;28;20222;-91
2023/10/12 06:36:01;;;;;;;5.57;2.20;;;;;;;;;;4969564;28;20207;-90
2023/10/12 06:44:13;;;;;;;5.70;2.47;;;;;;;;;;4950504;29;20186;-91
2023/10/12 06:46:48;;;;;;;5.00;2.20;;;;;;;;;;4947298;29;20254;-91
2023/10/12 06:49:18;;;;;;;7.77;2.30;;;;;;;;;;4942228;29;20187;-91
2023/10/12 06:52:13;;;;;;;4.83;2.27;;;;;;;;;;4953294;29;20223;-91
2023/10/12 06:54:39;;;;;;;7.20;2.10;;;;;;;;;;4937998;29;20211;-90
2023/10/12 07:00:18;;;;;;;7.73;2.30;;;;;;;;;;4946201;29;20187;-92
2023/10/12 07:02:46;;;;;;;5.70;2.50;;;;;;;;;;4948066;29;20187;-90
2023/10/12 07:05:19;;;;;;;5.83;2.47;;;;;;;;;;4937917;29;20331;-91
2023/10/12 07:07:46;;;;;;;5.03;2.13;;;;;;;;;;4953544;29;20297;-91
2023/10/12 07:12:48;;;;;;;6.70;2.53;;;;;;;;;;4955434;29;20219;-90
2023/10/12 07:15:22;;;;;;;7.50;2.40;;;;;;;;;;4948471;29;20206;-89
2023/10/12 07:17:55;;;;;;;6.23;2.53;;;;;;;;;;4938660;29;20232;-91
2023/10/12 07:22:57;;;;;;;6.50;2.37;;;;;;;;;;4957901;29;20175;-91
2023/10/12 07:25:26;;;;;;;4.87;2.60;;;;;;;;;;4929918;29;20291;-90
2023/10/12 07:27:59;;;;;;;5.43;2.40;;;;;;;;;;4941224;29;20223;-90
2023/10/12 07:30:33;;;;;;;4.17;2.03;;;;;;;;;;4942995;29;20187;-89
2023/10/12 07:33:04;;;;;;;7.37;2.50;;;;;;;;;;4945770;29;20241;-91
2023/10/12 07:35:38;;;;;;;6.80;2.67;;;;;;;;;;4939693;29;20215;-91
2023/10/12 07:38:23;;;;;;;8.17;2.67;;;;;;;;;;4941992;29;20187;-90
2023/10/12 07:41:00;;;;;;;6.33;2.50;;;;;;;;;;4951732;29;20195;-91
2023/10/12 07:43:26;;;;;;;7.27;2.40;;;;;;;;;;4943722;29;20187;-90
2023/10/12 07:45:55;;;;;;;5.10;2.50;;;;;;;;;;4949630;29;20179;-91
2023/10/12 07:48:29;;;;;;;6.20;2.17;;;;;;;;;;4949758;29;20290;-90
2023/10/12 07:50:56;;;;;;;7.33;2.50;;;;;;;;;;4954845;29;20283;-91
2023/10/12 07:53:23;;;;;;;4.40;2.20;;;;;;;;;;4954765;28;20255;-84
2023/10/12 07:56:00;;;;;;;4.50;2.30;;;;;;;;;;4941765;29;20279;-84
2023/10/12 07:58:29;;;;;;;5.50;2.40;;;;;;;;;;4941849;29;20183;-84
2023/10/12 08:01:19;;;;;;;4.43;2.30;;;;;;;;;;4946614;29;20192;-83
2023/10/12 08:03:50;;;;;;;4.00;2.33;;;;;;;;;;4937082;29;20191;-84
2023/10/12 08:06:27;;;;;;;5.47;2.43;;;;;;;;;;4936627;29;20275;-83
2023/10/12 08:09:02;;;;;;;4.57;2.20;;;;;;;;;;4954590;28;20215;-84
2023/10/12 08:11:31;;;;;;;4.27;2.00;;;;;;;;;;4954629;29;20194;-84
2023/10/12 08:14:19;;;;;;;3.30;2.13;;;;;;;;;;4955606;29;20191;-90
2023/10/12 08:17:25;;;;;;;4.10;2.50;;;;;;;;;;4951017;29;20199;-91
2023/10/12 08:19:39;;;;;;;4.20;2.40;;;;;;;;;;4937806;29;20220;-91
2023/10/12 08:22:25;;;;;;;4.13;2.20;;;;;;;;;;4936440;29;20192;-90
2023/10/12 08:24:56;;;;;;;6.90;2.67;;;;;;;;;;4936493;29;20176;-90
2023/10/12 08:27:23;;;;;;;3.60;1.90;;;;;;;;;;4937488;29;20217;-89
2023/10/12 08:32:27;;;;;;;4.77;1.97;;;;;;;;;;4937083;29;20195;-89
2023/10/12 08:37:35;;;;;;;3.13;1.67;;;;;;;;;;4937154;29;20266;-89
2023/10/12 08:40:17;;;;;;;2.53;1.40;;;;;;;;;;4921116;29;20264;-88
2023/10/12 08:42:55;;;;;;;2.97;1.40;;;;;;;;;;4932654;29;20195;-88
2023/10/12 08:45:23;;;;;;;2.53;1.40;;;;;;;;;;4939314;29;20195;-89
2023/10/12 08:47:54;;;;;;;3.70;1.50;;;;;;;;;;4951720;29;20215;-89
2023/10/12 08:53:07;;;;;;;1.90;1.30;;;;;;;;;;4942674;29;21176;-90
2023/10/12 08:55:38;;;;;;;1.93;1.20;;;;;;;;;;4943012;29;20187;-91
2023/10/12 08:58:13;;;;;;;2.23;1.20;;;;;;;;;;4940549;29;20192;-89
2023/10/12 09:00:42;;;;;;;2.03;1.23;;;;;;;;;;4936951;29;20194;-90
2023/10/12 09:05:51;;;;;;;3.23;1.47;;;;;;;;;;4946444;29;20195;-88
2023/10/12 09:10:49;;;;;;;2.70;1.20;;;;;;;;;;4935933;29;20180;-89
2023/10/12 09:13:22;;;;;;;3.57;1.40;;;;;;;;;;4934734;29;20210;-88
2023/10/12 09:15:54;;;;;;;3.50;1.40;;;;;;;;;;4934951;29;20183;-91
2023/10/12 09:18:24;;;;;;;3.80;1.83;;;;;;;;;;4936011;29;20250;-90
2023/10/12 09:31:14;;;;;;;2.37;1.80;;;;;;;;;;4936142;29;20184;-90
2023/10/12 09:36:27;;;;;;;4.40;2.10;;;;;;;;;;4936465;29;20204;-90
2023/10/12 09:38:57;;;;;;;3.90;2.53;;;;;;;;;;4935552;29;20180;-91
2023/10/12 09:41:29;;;;;;;2.50;2.20;;;;;;;;;;4935631;29;20208;-91
2023/10/12 09:44:04;;;;;;;3.63;2.60;;;;;;;;;;4935726;29;20188;-90
2023/10/12 09:46:31;;;;;;;4.10;2.43;;;;;;;;;;4935797;29;20183;-84
2023/10/12 09:49:06;;;;;;;2.30;2.10;;;;;;;;;;4937262;29;20216;-84
2023/10/12 09:51:45;;;;;;;2.60;2.13;;;;;;;;;;4954226;29;20187;-84
2023/10/12 09:54:15;;;;;;;3.07;2.40;;;;;;;;;;4946739;29;20180;-83
2023/10/12 09:56:46;;;;;;;2.60;2.40;;;;;;;;;;4941658;28;20200;-84
2023/10/12 09:59:14;;;;;;;5.20;2.60;;;;;;;;;;4938753;29;20192;-83
2023/10/12 10:09:46;;;;;;;4.00;2.90;;;;;;;;;;4956396;29;20190;-83
2023/10/12 10:12:20;;;;;;;4.20;3.70;;;;;;;;;;4939483;29;20184;-84
2023/10/12 10:14:52;;;;;;;3.93;3.53;;;;;;;;;;4953681;29;20195;-84
2023/10/12 10:17:27;;;;;;;5.53;3.10;;;;;;;;;;4942197;29;20199;-84
2023/10/12 10:20:33;;;;;;;4.53;4.13;;;;;;;;;;4938095;29;20184;-83
2023/10/12 10:22:57;;;;;;;4.30;3.90;;;;;;;;;;4938846;29;20191;-84
2023/10/12 10:25:27;;;;;;;5.50;4.50;;;;;;;;;;4938430;29;20200;-84
2023/10/12 10:27:57;;;;;;;6.13;4.50;;;;;;;;;;4938309;29;20212;-83
2023/10/12 10:30:27;;;;;;;4.53;4.13;;;;;;;;;;4937951;29;20183;-84
2023/10/12 10:33:12;;;;;;;6.17;5.40;;;;;;;;;;4937451;29;20236;-84
2023/10/12 10:35:58;;;;;;;6.00;5.40;;;;;;;;;;4951287;28;20203;-84
2023/10/12 10:38:32;;;;;;;5.80;5.20;;;;;;;;;;4954566;29;20199;-84
2023/10/12 10:41:10;;;;;;;6.27;5.67;;;;;;;;;;4956863;29;20191;-83
2023/10/12 10:43:37;;;;;;;5.80;5.13;;;;;;;;;;4948893;29;20184;-84
2023/10/12 10:46:16;;;;;;;6.20;5.30;;;;;;;;;;4926996;29;20204;-83
2023/10/12 10:48:52;;;;;;;6.23;5.63;;;;;;;;;;4949348;29;20234;-83
2023/10/12 10:51:18;;;;;;;7.67;5.83;;;;;;;;;;4949985;29;20187;-83
2023/10/12 10:53:53;;;;;;;6.90;5.73;;;;;;;;;;4940381;29;20188;-83
2023/10/12 10:56:38;;;;;;;6.27;5.67;;;;;;;;;;4937952;29;20190;-83
2023/10/12 10:59:07;;;;;;;7.33;5.50;;;;;;;;;;4937941;29;20192;-83
2023/10/12 11:01:33;;;;;;;5.80;5.30;;;;;;;;;;4937352;29;20196;-83
2023/10/12 11:04:01;;;;;;;5.63;5.03;;;;;;;;;;4946763;29;20192;-84
2023/10/12 11:06:31;;;;;;;6.20;5.10;;;;;;;;;;4937409;29;20187;-84
2023/10/12 11:09:07;;;;;;;5.57;5.10;;;;;;;;;;4940082;29;20216;-83
2023/10/12 11:11:37;;;;;;;6.37;5.60;;;;;;;;;;4933511;29;20253;-83
2023/10/12 11:14:12;;;;;;;5.97;5.33;;;;;;;;;;4954565;29;20187;-83
2023/10/12 11:16:43;;;;;;;5.97;5.37;;;;;;;;;;4949572;29;20191;-83
2023/10/12 11:19:12;;;;;;;5.40;4.90;;;;;;;;;;4937261;29;20234;-83
2023/10/12 11:21:51;;;;;;;5.57;5.07;;;;;;;;;;4936899;29;20222;-83
2023/10/12 11:24:18;;;;;;;6.03;5.53;;;;;;;;;;4937306;29;20180;-84
2023/10/12 11:26:51;;;;;;;7.30;5.47;;;;;;;;;;4937187;29;20194;-84
2023/10/12 11:29:18;;;;;;;7.10;5.70;;;;;;;;;;4945361;29;20275;-89
2023/10/12 11:31:46;;;;;;;6.30;5.70;;;;;;;;;;4937543;29;20191;-85
2023/10/12 11:34:13;;;;;;;8.53;6.00;;;;;;;;;;4975052;28;20241;-84
2023/10/12 11:36:45;;;;;;;6.87;6.17;;;;;;;;;;4975177;28;20205;-84
2023/10/12 11:39:17;;;;;;;7.77;6.10;;;;;;;;;;4957209;28;20188;-85
2023/10/12 11:42:06;;;;;;;6.77;6.20;;;;;;;;;;4944732;29;20191;-84
2023/10/12 11:44:36;;;;;;;7.63;6.17;;;;;;;;;;4944669;29;20199;-84
2023/10/12 11:47:08;;;;;;;7.30;6.47;;;;;;;;;;4938142;29;20219;-84
2023/10/12 11:50:10;;;;;;;7.10;6.40;;;;;;;;;;4936546;29;20218;-84
2023/10/12 11:52:40;;;;;;;8.87;6.90;;;;;;;;;;4887293;29;20187;-85
2023/10/12 11:55:31;;;;;;;7.87;7.07;;;;;;;;;;4921191;29;20240;-83
2023/10/12 11:57:59;;;;;;;7.33;6.63;;;;;;;;;;4934522;29;20200;-84
2023/10/12 12:00:44;;;;;;;8.43;7.53;;;;;;;;;;4941307;29;20191;-83
2023/10/12 12:03:13;;;;;;;8.90;8.00;;;;;;;;;;4938166;29;20260;-84
2023/10/12 12:05:40;;;;;;;8.93;7.80;;;;;;;;;;4955784;29;20187;-84
2023/10/12 12:08:18;;;;;;;9.70;8.50;;;;;;;;;;4940789;29;20316;-83
2023/10/12 12:13:16;;;;;;;10.00;8.73;;;;;;;;;;4938589;29;20274;-82
2023/10/12 12:15:45;;;;;;;15.00;9.63;;;;;;;;;;4935907;29;20186;-82
2023/10/12 12:18:21;;;;;;;10.33;9.20;;;;;;;;;;4936075;29;20187;-83
2023/10/12 12:20:51;;;;;;;10.07;9.07;;;;;;;;;;4935815;29;20225;-83
2023/10/12 12:23:18;;;;;;;9.33;8.43;;;;;;;;;;4943836;29;20202;-83
2023/10/12 12:25:44;;;;;;;12.17;9.27;;;;;;;;;;4942528;29;20227;-83
2023/10/12 12:28:21;;;;;;;10.60;9.33;;;;;;;;;;4947661;29;20242;-83
2023/10/12 12:30:51;;;;;;;9.70;8.70;;;;;;;;;;4947617;29;20184;-82
2023/10/12 12:33:17;;;;;;;10.40;9.23;;;;;;;;;;4922156;29;20231;-82
2023/10/12 12:36:10;;;;;;;11.60;9.33;;;;;;;;;;4954767;29;20261;-82
2023/10/12 12:39:22;;;;;;;10.13;9.07;;;;;;;;;;4932964;29;20200;-82
2023/10/12 12:41:25;;;;;;;13.27;10.83;;;;;;;;;;4934208;29;20192;-83
2023/10/12 12:43:52;;;;;;;11.00;9.83;;;;;;;;;;4935855;29;20188;-83
2023/10/12 12:46:19;;;;;;;11.90;10.07;;;;;;;;;;4936020;29;20184;-83
2023/10/12 12:48:48;;;;;;;11.53;10.33;;;;;;;;;;4935676;29;20282;-82
2023/10/12 12:51:15;;;;;;;15.33;11.60;;;;;;;;;;4936665;29;20227;-83
2023/10/12 12:53:42;;;;;;;12.20;10.90;;;;;;;;;;4935689;29;20180;-82
2023/10/12 12:56:11;;;;;;;12.83;10.83;;;;;;;;;;4941778;29;20238;-83
2023/10/12 12:58:44;;;;;;;13.30;11.50;;;;;;;;;;4941111;29;20191;-82
2023/10/12 13:01:10;;;;;;;16.03;14.30;;;;;;;;;;4942486;28;20196;-83
2023/10/12 13:03:36;;;;;;;16.33;13.93;;;;;;;;;;4947107;29;20191;-84
2023/10/12 13:06:07;;;;;;;17.27;15.37;;;;;;;;;;4934045;29;20199;-84
2023/10/12 13:08:34;;;;;;;19.40;15.23;;;;;;;;;;4940198;28;20247;-84
2023/10/12 13:11:21;;;;;;;19.37;15.93;;;;;;;;;;4939105;29;20198;-84
2023/10/12 13:13:47;;;;;;;16.03;14.17;;;;;;;;;;4937970;29;20230;-84
2023/10/12 13:16:17;;;;;;;22.20;14.90;;;;;;;;;;4935146;29;20194;-84
2023/10/12 13:18:46;;;;;;;17.43;14.17;;;;;;;;;;4943159;29;20191;-85
2023/10/12 13:21:15;;;;;;;15.57;13.27;;;;;;;;;;4937389;29;20183;-83
2023/10/12 13:23:42;;;;;;;14.97;12.60;;;;;;;;;;4946559;28;20196;-83
2023/10/12 13:26:10;;;;;;;15.03;13.37;;;;;;;;;;4939008;29;20199;-82
2023/10/12 13:28:38;;;;;;;16.23;13.70;;;;;;;;;;4943476;29;20212;-83
2023/10/12 13:31:05;;;;;;;16.53;14.13;;;;;;;;;;4937209;29;20187;-81
2023/10/12 13:33:31;;;;;;;18.53;13.53;;;;;;;;;;4939296;29;20231;-81
2023/10/12 13:36:01;;;;;;;21.20;15.33;;;;;;;;;;4938900;29;20215;-82
2023/10/12 13:38:31;;;;;;;17.77;15.87;;;;;;;;;;4939103;29;20196;-82
2023/10/12 13:40:57;;;;;;;17.97;15.10;;;;;;;;;;4938961;29;20228;-81
2023/10/12 13:43:26;;;;;;;18.10;14.93;;;;;;;;;;4938914;29;20180;-81
2023/10/12 13:45:56;;;;;;;33.13;16.93;;;;;;;;;;4938882;29;20191;-81
2023/10/12 13:48:27;;;;;;;19.70;16.23;;;;;;;;;;4942091;29;20250;-81
2023/10/12 13:51:01;;;;;;;22.80;17.43;;;;;;;;;;4942503;29;20190;-81
2023/10/12 13:53:34;;;;;;;19.13;16.57;;;;;;;;;;4944248;29;20246;-81
2023/10/12 13:56:01;;;;;;;25.40;16.80;;;;;;;;;;4946813;29;20190;-81
2023/10/12 13:58:32;;;;;;;25.60;18.17;;;;;;;;;;4950736;29;20192;-81
2023/10/12 14:01:01;;;;;;;24.87;17.53;;;;;;;;;;4955160;29;20263;-82
2023/10/12 14:03:34;;;;;;;24.43;16.77;;;;;;;;;;4945656;29;20271;-82
2023/10/12 14:06:06;;;;;;;24.33;16.77;;;;;;;;;;4946358;29;20279;-81
2023/10/12 14:08:34;;;;;;;23.27;16.77;;;;;;;;;;4938112;29;20217;-81
2023/10/12 14:11:06;;;;;;;28.27;18.43;;;;;;;;;;4923065;29;20188;-81
2023/10/12 14:13:32;;;;;;;25.27;18.57;;;;;;;;;;4942480;29;20192;-81
2023/10/12 14:15:58;;;;;;;23.23;18.63;;;;;;;;;;4943646;29;20429;-81
2023/10/12 14:18:28;;;;;;;29.00;20.10;;;;;;;;;;4953269;29;20191;-81
2023/10/12 14:20:54;;;;;;;26.37;18.80;;;;;;;;;;4939361;29;20192;-81
2023/10/12 14:23:26;;;;;;;31.93;19.90;;;;;;;;;;4941578;29;20188;-84
2023/10/12 14:25:54;;;;;;;26.33;18.90;;;;;;;;;;4940182;29;20226;-85
2023/10/12 14:28:23;;;;;;;33.67;20.77;;;;;;;;;;4945826;29;20287;-83
2023/10/12 14:30:56;;;;;;;29.97;20.53;;;;;;;;;;4937335;29;20243;-84
2023/10/12 14:33:22;;;;;;;24.33;20.20;;;;;;;;;;4953133;29;20235;-82
2023/10/12 14:35:48;;;;;;;25.87;20.27;;;;;;;;;;4937385;29;20208;-82
2023/10/12 14:38:18;;;;;;;25.60;20.27;;;;;;;;;;4937984;29;20183;-83
2023/10/12 14:40:45;;;;;;;29.17;19.97;;;;;;;;;;4938270;29;20188;-82
2023/10/12 14:43:12;;;;;;;36.20;22.17;;;;;;;;;;4943446;29;20188;-82
2023/10/12 14:45:45;;;;;;;40.63;22.57;;;;;;;;;;4956965;29;20256;-82
2023/10/12 14:48:11;;;;;;;33.23;22.07;;;;;;;;;;4949843;29;20212;-83
2023/10/12 14:50:50;;;;;;;41.67;25.13;;;;;;;;;;4937705;29;20196;-83
2023/10/12 14:53:21;;;;;;;38.80;24.57;;;;;;;;;;4937994;29;20266;-82
2023/10/12 14:55:53;;;;;;;37.57;25.20;;;;;;;;;;4937657;29;20187;-83
2023/10/12 14:58:19;;;;;;;44.77;28.37;;;;;;;;;;4955791;29;20253;-82
2023/10/12 15:00:50;;;;;;;40.97;29.40;;;;;;;;;;4950620;29;20196;-84
2023/10/12 15:03:21;;;;;;;41.53;29.60;;;;;;;;;;4949422;29;20231;-83
2023/10/12 15:05:47;;;;;;;34.60;27.57;;;;;;;;;;4943559;29;20192;-81
2023/10/12 15:08:14;;;;;;;33.80;27.27;;;;;;;;;;4937764;29;20207;-82
2023/10/12 15:10:46;;;;;;;32.97;25.87;;;;;;;;;;4934107;29;20188;-83
2023/10/12 15:13:16;;;;;;;35.47;26.10;;;;;;;;;;4944144;29;20183;-82
2023/10/12 15:15:46;;;;;;;36.83;27.70;;;;;;;;;;4956348;29;20273;-82
2023/10/12 15:18:13;;;;;;;34.60;26.53;;;;;;;;;;4956799;29;20259;-82
2023/10/12 15:20:48;;;;;;;34.27;26.40;;;;;;;;;;4956764;29;20266;-82
2023/10/12 15:23:17;;;;;;;34.37;26.60;;;;;;;;;;4956964;29;20182;-81
2023/10/12 15:25:44;;;;;;;33.27;25.13;;;;;;;;;;4956015;29;20180;-82
2023/10/12 15:28:11;;;;;;;34.63;25.07;;;;;;;;;;4940564;29;20219;-82
2023/10/12 15:30:46;;;;;;;27.63;23.10;;;;;;;;;;4938947;29;20239;-82
2023/10/12 15:33:14;;;;;;;27.67;21.57;;;;;;;;;;4937134;29;20247;-82
2023/10/12 15:35:40;;;;;;;29.03;22.03;;;;;;;;;;4937082;29;20204;-83
2023/10/12 15:38:06;;;;;;;25.60;20.20;;;;;;;;;;4937252;29;20199;-84
2023/10/12 15:40:36;;;;;;;24.67;20.07;;;;;;;;;;4936779;29;20244;-83
2023/10/12 15:43:06;;;;;;;24.40;19.33;;;;;;;;;;4923028;29;20212;-83
2023/10/12 15:45:33;;;;;;;22.40;18.07;;;;;;;;;;4945744;29;20187;-83
2023/10/12 15:48:03;;;;;;;19.87;16.90;;;;;;;;;;4936441;29;20216;-83
2023/10/12 15:50:29;;;;;;;20.40;16.60;;;;;;;;;;4951713;29;20210;-83
2023/10/12 15:52:58;;;;;;;19.67;16.67;;;;;;;;;;4920156;29;20192;-83
2023/10/12 15:55:24;;;;;;;21.27;16.43;;;;;;;;;;4936242;29;20270;-82
2023/10/12 15:57:50;;;;;;;18.80;15.93;;;;;;;;;;4940883;29;20204;-82
2023/10/12 16:00:24;;;;;;;24.37;17.10;;;;;;;;;;4948594;29;20183;-82
2023/10/12 16:02:57;;;;;;;24.27;18.33;;;;;;;;;;4936417;29;20192;-82
2023/10/12 16:05:24;;;;;;;19.30;17.17;;;;;;;;;;4954143;29;20238;-82
2023/10/12 16:07:51;;;;;;;21.37;17.07;;;;;;;;;;4948944;29;20243;-82
2023/10/12 16:10:17;;;;;;;22.30;17.40;;;;;;;;;;4950651;29;20218;-82
2023/10/12 16:12:50;;;;;;;21.43;17.27;;;;;;;;;;4932646;29;20219;-83
2023/10/12 16:15:17;;;;;;;20.60;16.33;;;;;;;;;;4948294;29;20242;-84
2023/10/12 16:17:47;;;;;;;23.00;16.97;;;;;;;;;;4939140;29;20227;-84
2023/10/12 16:20:16;;;;;;;21.87;16.37;;;;;;;;;;4955231;29;20183;-85
2023/10/12 16:22:44;;;;;;;22.27;16.83;;;;;;;;;;4941085;29;20192;-84
2023/10/12 16:25:10;;;;;;;16.97;14.93;;;;;;;;;;4941161;29;20215;-85
2023/10/12 16:27:37;;;;;;;17.33;14.40;;;;;;;;;;4955501;29;20210;-84
2023/10/12 16:30:04;;;;;;;20.10;14.43;;;;;;;;;;4943270;29;20190;-84
2023/10/12 16:32:30;;;;;;;15.07;13.17;;;;;;;;;;4949406;29;20187;-84
2023/10/12 16:34:59;;;;;;;12.50;11.20;;;;;;;;;;4940333;29;20216;-85
2023/10/12 16:37:25;;;;;;;12.37;11.07;;;;;;;;;;4947218;29;20198;-84
2023/10/12 16:39:54;;;;;;;13.73;11.47;;;;;;;;;;4941568;29;20201;-84
2023/10/12 16:42:20;;;;;;;15.00;12.10;;;;;;;;;;4939868;29;20196;-84
2023/10/12 16:44:48;;;;;;;14.47;11.47;;;;;;;;;;4955771;29;20183;-84
2023/10/12 16:47:14;;;;;;;13.00;11.60;;;;;;;;;;4939353;29;20191;-85
2023/10/12 16:49:44;;;;;;;15.10;11.83;;;;;;;;;;4942877;29;20191;-84
2023/10/12 16:52:11;;;;;;;13.57;12.10;;;;;;;;;;4938629;29;20184;-84
2023/10/12 16:54:38;;;;;;;16.13;13.07;;;;;;;;;;4931904;29;20281;-84
2023/10/12 16:57:06;;;;;;;15.27;13.40;;;;;;;;;;4939272;29;20215;-84